Time;durP1;ratioP1;P1;durP2;ratioP2;P2;SDS_P1;SDS_P2;PMS_P1;PMS_P2;Temp;Humidity;BMP_temperature;BMP_pressure;BME280_temperature;BME280_humidity;BME280_pressure;Samples;Min_cycle;Max_cycle;Signal;HPM_P1;HPM_P2
2023/06/29 00:00:59;;;;;;;3.40;3.00;;;;;;;17.61;100.00;100305.16;5085553;28;20193;-75
2023/06/29 00:03:25;;;;;;;3.10;2.83;;;;;;;17.56;100.00;100306.22;5082669;28;20235;-76
2023/06/29 00:05:55;;;;;;;3.23;2.80;;;;;;;17.53;100.00;100307.22;5099292;28;20260;-76
2023/06/29 00:08:21;;;;;;;6.40;3.00;;;;;;;17.54;100.00;100303.69;5109462;28;20189;-75
2023/06/29 00:10:47;;;;;;;4.20;3.33;;;;;;;17.53;100.00;100307.22;5099704;28;20839;-75
2023/06/29 00:13:12;;;;;;;5.07;3.03;;;;;;;17.54;100.00;100308.91;5084607;28;20272;-75
2023/06/29 00:15:37;;;;;;;3.03;2.60;;;;;;;17.51;100.00;100302.03;5078989;28;20244;-76
2023/06/29 00:18:03;;;;;;;2.87;2.63;;;;;;;17.49;100.00;100301.25;5085172;28;20289;-75
2023/06/29 00:20:29;;;;;;;3.50;3.00;;;;;;;17.46;100.00;100300.50;5082450;28;20189;-75
2023/06/29 00:22:54;;;;;;;3.23;3.00;;;;;;;17.41;100.00;100297.22;5076886;28;20210;-74
2023/06/29 00:25:19;;;;;;;4.20;2.93;;;;;;;17.37;100.00;100294.69;5095407;28;20762;-75
2023/06/29 00:27:45;;;;;;;3.10;2.60;;;;;;;17.36;100.00;100300.00;5078421;28;20189;-74
2023/06/29 00:30:10;;;;;;;2.97;2.73;;;;;;;17.34;100.00;100294.81;5087785;28;20672;-74
2023/06/29 00:32:36;;;;;;;3.30;2.70;;;;;;;17.33;100.00;100295.72;5084997;28;20183;-75
2023/06/29 00:35:01;;;;;;;4.70;2.80;;;;;;;17.32;100.00;100288.78;5082581;28;20291;-75
2023/06/29 00:37:26;;;;;;;3.63;3.20;;;;;;;17.30;100.00;100284.53;5097026;28;20180;-75
2023/06/29 00:39:52;;;;;;;4.20;3.27;;;;;;;17.26;100.00;100289.03;5099875;28;20184;-75
2023/06/29 00:42:17;;;;;;;4.67;3.53;;;;;;;17.26;100.00;100288.16;5094663;28;20668;-75
2023/06/29 00:44:43;;;;;;;3.43;3.10;;;;;;;17.20;100.00;100277.03;5088610;28;20209;-75
2023/06/29 00:47:08;;;;;;;3.40;3.10;;;;;;;17.17;100.00;100276.25;5099584;28;20188;-75
2023/06/29 00:49:34;;;;;;;3.10;2.87;;;;;;;17.14;100.00;100279.84;5087438;28;20192;-75
2023/06/29 00:51:59;;;;;;;3.20;2.90;;;;;;;17.12;100.00;100270.38;5087632;28;20633;-75
2023/06/29 00:54:25;;;;;;;3.17;2.97;;;;;;;17.10;100.00;100277.41;5102975;28;20188;-75
2023/06/29 00:56:51;;;;;;;3.23;2.70;;;;;;;17.05;100.00;100278.41;5081085;28;20204;-74
2023/06/29 00:59:16;;;;;;;3.20;2.90;;;;;;;17.04;100.00;100275.88;5082623;28;20182;-75
2023/06/29 01:01:43;;;;;;;3.37;3.07;;;;;;;17.02;100.00;100275.06;5087421;28;20204;-75
2023/06/29 01:04:09;;;;;;;3.43;3.13;;;;;;;17.00;100.00;100266.44;5082111;28;20263;-75
2023/06/29 01:06:44;;;;;;;3.20;3.00;;;;;;;16.98;100.00;100260.41;5086641;28;20181;-75
2023/06/29 01:09:10;;;;;;;3.57;2.97;;;;;;;16.97;100.00;100267.41;5077785;28;20183;-75
2023/06/29 01:11:37;;;;;;;3.33;3.03;;;;;;;16.95;100.00;100264.00;5097014;28;20212;-75
2023/06/29 01:14:06;;;;;;;3.43;3.13;;;;;;;16.95;100.00;100264.00;5085371;28;20216;-74
2023/06/29 01:16:34;;;;;;;3.43;3.10;;;;;;;16.93;100.00;100257.94;5076721;28;20186;-74
2023/06/29 01:19:03;;;;;;;3.03;2.80;;;;;;;16.92;100.00;100254.47;5078958;28;21784;-75
2023/06/29 01:21:30;;;;;;;3.20;2.90;;;;;;;16.92;100.00;100258.84;5085479;28;20551;-75
2023/06/29 01:23:59;;;;;;;3.47;3.13;;;;;;;16.91;100.00;100247.53;5087864;28;20227;-74
2023/06/29 01:26:25;;;;;;;3.73;3.37;;;;;;;16.91;100.00;100251.91;5092625;28;20182;-76
2023/06/29 01:28:51;;;;;;;3.60;3.30;;;;;;;16.90;100.00;100247.56;5082854;28;20189;-77
2023/06/29 01:31:16;;;;;;;3.90;3.50;;;;;;;16.87;100.00;100250.28;5083573;28;20198;-75
2023/06/29 01:33:42;;;;;;;3.57;3.27;;;;;;;16.85;100.00;100247.75;5083033;28;20982;-76
2023/06/29 01:36:15;;;;;;;3.53;2.93;;;;;;;16.81;100.00;100243.53;5094826;28;20180;-75
2023/06/29 01:38:47;;;;;;;4.47;2.83;;;;;;;16.76;100.00;100248.09;5084687;28;20679;-75
2023/06/29 01:41:16;;;;;;;5.33;3.17;;;;;;;16.71;100.00;100239.53;5080082;28;20169;-75
2023/06/29 01:43:42;;;;;;;3.73;3.07;;;;;;;16.67;100.00;100240.56;5076125;28;20201;-75
2023/06/29 01:46:08;;;;;;;3.57;3.27;;;;;;;16.66;100.00;100238.84;5073516;28;20201;-74
2023/06/29 01:48:35;;;;;;;3.47;3.07;;;;;;;16.64;100.00;100241.53;5087069;28;20665;-74
2023/06/29 01:51:01;;;;;;;3.47;3.17;;;;;;;16.61;100.00;100233.78;5087787;28;20224;-75
2023/06/29 01:53:27;;;;;;;3.63;3.13;;;;;;;16.58;100.00;100231.28;5083778;28;20320;-75
2023/06/29 01:55:52;;;;;;;3.47;3.17;;;;;;;16.55;100.00;100236.63;5079791;28;20683;-75
2023/06/29 01:58:17;;;;;;;3.73;3.43;;;;;;;16.54;100.00;100243.59;5085569;28;20185;-75
2023/06/29 02:00:43;;;;;;;3.40;3.10;;;;;;;16.54;100.00;100238.38;5083603;28;20183;-75
2023/06/29 02:03:08;;;;;;;3.60;3.30;;;;;;;16.54;100.00;100237.53;5081050;28;20182;-75
2023/06/29 02:05:33;;;;;;;3.27;2.97;;;;;;;16.51;100.00;100238.47;5083159;28;20212;-75
2023/06/29 02:07:59;;;;;;;3.50;3.20;;;;;;;16.52;100.00;100229.72;5087740;28;20199;-75
2023/06/29 02:10:24;;;;;;;3.40;2.97;;;;;;;16.51;100.00;100228.03;5093720;28;20216;-75
2023/06/29 02:12:49;;;;;;;3.73;3.43;;;;;;;16.52;100.00;100231.50;5088867;28;20913;-75
2023/06/29 02:15:15;;;;;;;3.23;3.03;;;;;;;16.49;100.00;100235.06;5080264;28;20702;-75
2023/06/29 02:17:40;;;;;;;3.63;3.30;;;;;;;16.47;100.00;100239.50;5073659;28;20706;-75
2023/06/29 02:20:09;;;;;;;4.33;3.00;;;;;;;16.44;100.00;100243.06;5078910;28;20664;-75
2023/06/29 02:22:34;;;;;;;3.90;3.23;;;;;;;16.41;100.00;100237.09;5081630;28;20181;-75
2023/06/29 02:25:00;;;;;;;3.60;3.23;;;;;;;16.38;100.00;100232.84;5094436;28;20560;-74
2023/06/29 02:27:25;;;;;;;3.67;3.37;;;;;;;16.32;100.00;100227.81;5077648;28;20193;-75
2023/06/29 02:29:50;;;;;;;4.23;3.40;;;;;;;16.28;100.00;100234.03;5077532;28;20178;-75
2023/06/29 02:32:16;;;;;;;3.20;2.90;;;;;;;16.27;100.00;100237.53;5078256;28;20334;-75
2023/06/29 02:34:41;;;;;;;3.37;3.13;;;;;;;16.25;100.00;100239.38;5084092;28;22294;-73
2023/06/29 02:37:06;;;;;;;3.47;3.17;;;;;;;16.23;100.00;100228.13;5104104;28;20932;-75
2023/06/29 02:39:31;;;;;;;3.23;2.93;;;;;;;16.23;100.00;100233.34;5089420;28;20185;-75
2023/06/29 02:41:57;;;;;;;4.30;3.90;;;;;;;16.21;100.00;100232.53;5093227;28;20577;-75
2023/06/29 02:44:22;;;;;;;3.70;3.40;;;;;;;16.19;100.00;100231.75;5085014;28;20229;-75
2023/06/29 02:46:48;;;;;;;4.17;3.40;;;;;;;16.20;100.00;100230.84;5078010;28;20907;-76
2023/06/29 02:49:15;;;;;;;3.93;3.60;;;;;;;16.21;100.00;100222.94;5093246;28;20188;-75
2023/06/29 02:51:40;;;;;;;4.00;3.70;;;;;;;16.22;100.00;100223.81;5083899;28;20863;-75
2023/06/29 02:54:05;;;;;;;3.87;3.57;;;;;;;16.23;100.00;100228.13;5075948;28;20208;-74
2023/06/29 02:56:31;;;;;;;3.80;3.47;;;;;;;16.23;100.00;100228.97;5082356;28;20198;-76
2023/06/29 02:58:56;;;;;;;3.60;3.30;;;;;;;16.23;100.00;100220.28;5092305;28;20190;-74
2023/06/29 03:01:22;;;;;;;4.27;3.97;;;;;;;16.21;100.00;100228.16;5081051;28;20196;-75
2023/06/29 03:03:47;;;;;;;4.10;3.70;;;;;;;16.20;100.00;100223.84;5079021;28;20198;-75
2023/06/29 03:06:12;;;;;;;4.40;4.07;;;;;;;16.21;100.00;100220.31;5081053;28;20211;-76
2023/06/29 03:08:38;;;;;;;4.07;3.77;;;;;;;16.21;100.00;100222.09;5084497;28;20294;-76
2023/06/29 03:11:03;;;;;;;4.20;3.80;;;;;;;16.19;100.00;100219.53;5083577;28;20307;-76
2023/06/29 03:13:29;;;;;;;4.30;4.00;;;;;;;16.18;100.00;100225.69;5082453;28;20288;-76
2023/06/29 03:15:58;;;;;;;4.43;4.13;;;;;;;16.14;100.00;100218.84;5088155;28;20203;-77
2023/06/29 03:18:24;;;;;;;4.30;4.00;;;;;;;16.10;100.00;100214.63;5084193;28;20207;-76
2023/06/29 03:20:49;;;;;;;4.17;3.70;;;;;;;16.05;100.00;100217.38;5076799;28;20212;-75
2023/06/29 03:23:15;;;;;;;3.70;3.40;;;;;;;16.03;100.00;100223.56;5087705;28;20699;-75
2023/06/29 03:25:40;;;;;;;3.97;3.67;;;;;;;16.00;100.00;100212.31;5078242;28;20211;-75
2023/06/29 03:28:05;;;;;;;4.17;3.83;;;;;;;15.99;100.00;100215.84;5089448;28;20234;-76
2023/06/29 03:30:30;;;;;;;3.90;3.60;;;;;;;15.99;100.00;100215.84;5082921;28;20310;-76
2023/06/29 03:32:58;;;;;;;4.03;3.67;;;;;;;15.99;100.00;100214.97;5081343;28;20290;-77
2023/06/29 03:35:24;;;;;;;4.30;4.00;;;;;;;15.97;100.00;100228.06;5078904;28;20688;-76
2023/06/29 03:37:50;;;;;;;4.10;3.80;;;;;;;15.98;100.00;100216.72;5081454;28;20184;-75
2023/06/29 03:40:16;;;;;;;4.20;3.90;;;;;;;15.99;100.00;100218.44;5085365;28;20190;-75
2023/06/29 03:42:41;;;;;;;4.53;4.20;;;;;;;16.04;100.00;100215.69;5081430;28;20322;-76
2023/06/29 03:45:07;;;;;;;4.40;4.00;;;;;;;16.07;100.00;100212.09;5080870;28;20674;-76
2023/06/29 03:47:32;;;;;;;4.60;4.20;;;;;;;16.12;100.00;100218.03;5081617;28;20188;-78
2023/06/29 03:49:58;;;;;;;5.07;4.27;;;;;;;16.17;100.00;100215.25;5087193;28;21138;-76
2023/06/29 03:52:23;;;;;;;6.30;3.97;;;;;;;16.21;100.00;100209.88;5081122;28;20896;-76
2023/06/29 03:54:49;;;;;;;5.03;4.23;;;;;;;16.30;100.00;100206.97;5088227;28;20687;-75
2023/06/29 03:57:15;;;;;;;4.93;4.43;;;;;;;16.46;100.00;100209.06;5090471;28;20191;-75
2023/06/29 03:59:40;;;;;;;5.63;3.90;;;;;;;16.72;100.00;100199.44;5080135;28;20235;-75
2023/06/29 04:02:06;;;;;;;11.53;4.90;;;;;;;16.94;100.00;100204.75;5080054;28;20669;-75
2023/06/29 04:04:31;;;;;;;7.70;4.53;;;;;;;17.11;100.00;100200.69;5085770;28;20640;-76
2023/06/29 04:06:56;;;;;;;7.03;4.17;;;;;;;17.20;100.00;100195.97;5082497;28;20189;-76
2023/06/29 04:09:22;;;;;;;5.80;3.87;;;;;;;17.28;100.00;100200.91;5081179;28;20193;-76
2023/06/29 04:11:47;;;;;;;7.30;4.50;;;;;;;17.34;100.00;100198.03;5085095;28;20730;-75
2023/06/29 04:14:12;;;;;;;5.93;4.23;;;;;;;17.39;100.00;100199.63;5081160;28;20201;-75
2023/06/29 04:16:38;;;;;;;6.10;4.07;;;;;;;17.44;100.00;100200.31;5082923;28;20217;-75
2023/06/29 04:19:03;;;;;;;4.67;3.87;;;;;;;17.50;100.00;100206.16;5083016;28;20189;-76
2023/06/29 04:21:28;;;;;;;5.07;3.77;;;;;;;17.58;100.00;100202.38;5095942;27;20182;-75
2023/06/29 04:23:54;;;;;;;4.60;3.80;;;;;;;17.74;100.00;100198.22;5088166;28;20205;-75
2023/06/29 04:26:21;;;;;;;4.30;3.90;;;;;;;17.97;100.00;100199.94;5077750;28;20181;-77
2023/06/29 04:28:46;;;;;;;4.77;3.80;;;;;;;18.08;100.00;100209.09;5100420;27;20304;-76
2023/06/29 04:31:12;;;;;;;4.33;3.70;;;;;;;18.13;100.00;100200.16;5082143;28;20300;-75
2023/06/29 04:33:38;;;;;;;3.93;3.50;;;;;;;18.18;100.00;100205.22;5084259;28;20235;-76
2023/06/29 04:36:03;;;;;;;4.20;3.63;;;;;;;18.22;100.00;100198.94;5086335;28;20189;-76
2023/06/29 04:38:29;;;;;;;5.53;3.40;;;;;;;18.27;100.00;100202.19;5091976;28;20192;-76
2023/06/29 04:41:03;;;;;;;4.43;3.50;;;;;;;18.37;100.00;100199.19;5085070;28;20267;-76
2023/06/29 04:43:28;;;;;;;4.13;3.80;;;;;;;18.65;100.00;100201.44;5089588;28;20187;-75
2023/06/29 04:45:53;;;;;;;3.90;3.60;;;;;;;19.16;98.57;100200.97;5083669;28;20671;-76
2023/06/29 04:48:19;;;;;;;4.57;3.27;;;;;;;19.77;96.52;100206.84;5084523;28;20218;-76
2023/06/29 04:50:44;;;;;;;3.70;3.27;;;;;;;20.37;94.60;100195.16;5087528;28;20216;-76
2023/06/29 04:53:11;;;;;;;3.40;3.10;;;;;;;20.95;93.21;100207.03;5090841;28;20249;-76
2023/06/29 04:55:37;;;;;;;6.07;2.90;;;;;;;21.47;91.20;100198.09;5099379;28;20215;-77
2023/06/29 04:58:03;;;;;;;4.30;3.20;;;;;;;21.99;88.83;100200.50;5081524;28;20189;-76
2023/06/29 05:00:29;;;;;;;4.00;3.53;;;;;;;22.46;87.09;100199.47;5089083;28;20181;-77
2023/06/29 05:02:54;;;;;;;4.87;3.40;;;;;;;22.89;85.34;100200.44;5083983;28;20249;-75
2023/06/29 05:05:20;;;;;;;5.70;3.23;;;;;;;23.35;82.52;100196.69;5090437;28;20233;-75
2023/06/29 05:07:45;;;;;;;9.40;3.80;;;;;;;22.86;79.71;100198.81;5078703;28;20274;-77
2023/06/29 05:10:10;;;;;;;9.50;3.47;;;;;;;23.23;79.59;100193.03;5087877;28;20185;-77
2023/06/29 05:12:36;;;;;;;11.60;3.70;;;;;;;23.21;77.57;100189.69;5084351;28;20182;-76
2023/06/29 05:15:01;;;;;;;6.70;3.47;;;;;;;23.29;76.50;100182.94;5085507;28;20242;-77
2023/06/29 05:17:27;;;;;;;6.70;2.97;;;;;;;23.96;75.10;100183.06;5093100;28;20185;-76
2023/06/29 05:19:52;;;;;;;7.53;3.57;;;;;;;24.36;74.22;100183.03;5079354;28;20189;-76
2023/06/29 05:22:17;;;;;;;9.77;3.23;;;;;;;24.17;73.15;100176.38;5086042;28;20186;-77
2023/06/29 05:24:43;;;;;;;7.57;3.80;;;;;;;23.91;74.83;100178.09;5091530;28;20203;-76
2023/06/29 05:27:08;;;;;;;7.83;3.57;;;;;;;24.22;72.98;100172.53;5083288;28;20239;-75
2023/06/29 05:29:34;;;;;;;3.80;3.27;;;;;;;23.80;73.78;100165.59;5067741;28;20185;-76
2023/06/29 05:32:00;;;;;;;5.40;3.43;;;;;;;23.20;76.42;100167.69;5079768;28;20196;-77
2023/06/29 05:34:25;;;;;;;12.17;4.17;;;;;;;23.37;75.80;100165.78;5091217;28;20217;-76
2023/06/29 05:36:52;;;;;;;7.53;3.80;;;;;;;23.50;75.41;100171.13;5087011;28;20189;-76
2023/06/29 05:39:17;;;;;;;3.93;2.93;;;;;;;23.50;75.98;100160.53;5072595;28;20197;-77
2023/06/29 05:41:42;;;;;;;4.33;3.40;;;;;;;23.12;75.85;100154.13;5092952;28;20177;-76
2023/06/29 05:44:08;;;;;;;5.97;2.90;;;;;;;23.01;75.92;100162.72;5085978;28;20276;-77
2023/06/29 05:46:34;;;;;;;6.00;3.00;;;;;;;22.89;76.51;100160.84;5092185;28;20288;-77
2023/06/29 05:49:00;;;;;;;7.10;3.60;;;;;;;22.43;77.80;100161.91;5082188;28;20223;-76
2023/06/29 05:51:26;;;;;;;5.90;3.53;;;;;;;22.47;78.36;100155.50;5084666;28;20680;-75
2023/06/29 05:53:52;;;;;;;3.80;2.77;;;;;;;22.59;78.33;100153.91;5093124;28;20488;-77
2023/06/29 05:56:17;;;;;;;5.30;2.97;;;;;;;22.57;78.60;100161.06;5084161;28;20238;-76
2023/06/29 05:58:43;;;;;;;3.10;2.77;;;;;;;22.61;78.41;100157.31;5074337;28;20181;-76
2023/06/29 06:01:08;;;;;;;4.47;2.87;;;;;;;22.67;78.40;100162.19;5082962;28;20597;-76
2023/06/29 06:03:35;;;;;;;7.17;3.90;;;;;;;22.74;78.20;100165.28;5093631;28;20197;-75
2023/06/29 06:06:00;;;;;;;7.20;3.57;;;;;;;23.03;78.42;100160.84;5089962;28;20217;-76
2023/06/29 06:08:26;;;;;;;7.33;3.30;;;;;;;23.83;77.05;100164.53;5089320;28;20178;-77
2023/06/29 06:10:51;;;;;;;4.73;2.63;;;;;;;24.85;75.17;100164.72;5088606;28;20212;-76
2023/06/29 06:13:17;;;;;;;6.40;2.97;;;;;;;25.89;72.71;100158.03;5099697;28;20196;-77
2023/06/29 06:15:42;;;;;;;5.77;2.70;;;;;;;26.50;69.87;100164.09;5096009;28;20220;-75
2023/06/29 06:18:07;;;;;;;3.70;2.77;;;;;;;27.18;66.95;100164.03;5086050;28;20638;-76
2023/06/29 06:20:33;;;;;;;6.88;3.20;;;;;;;27.01;67.45;100155.63;5086873;28;20659;-75
2023/06/29 06:22:58;;;;;;;7.05;2.72;;;;;;;26.80;67.83;100160.00;5087176;28;20602;-75
2023/06/29 06:25:23;;;;;;;7.18;2.75;;;;;;;25.35;68.28;100157.56;5081677;28;20209;-76
2023/06/29 06:27:49;;;;;;;5.37;3.10;;;;;;;25.25;69.62;100152.09;5097523;28;20286;-75
2023/06/29 06:30:14;;;;;;;4.07;2.83;;;;;;;25.68;68.45;100152.56;5094716;28;20564;-74
2023/06/29 06:32:40;;;;;;;3.70;2.30;;;;;;;26.00;68.19;100155.44;5079299;28;20209;-75
2023/06/29 06:35:07;;;;;;;2.57;2.30;;;;;;;25.82;68.17;100155.00;5076673;28;20219;-77
2023/06/29 06:37:33;;;;;;;4.67;2.57;;;;;;;25.41;68.61;100151.84;5096034;28;20675;-74
2023/06/29 06:39:58;;;;;;;3.10;2.30;;;;;;;25.23;69.25;100159.31;5091962;28;20184;-77
2023/06/29 06:42:24;;;;;;;3.50;2.60;;;;;;;25.04;69.90;100154.50;5086850;28;20180;-76
2023/06/29 06:44:51;;;;;;;4.43;3.00;;;;;;;24.79;70.00;100152.75;5090141;28;20200;-75
2023/06/29 06:47:17;;;;;;;5.93;2.80;;;;;;;24.62;70.67;100144.19;5077869;28;20209;-76
2023/06/29 06:49:42;;;;;;;4.30;2.73;;;;;;;24.66;70.93;100150.09;5087020;28;20810;-76
2023/06/29 06:52:07;;;;;;;7.00;2.97;;;;;;;24.42;71.85;100150.88;5075851;28;20224;-75
2023/06/29 06:54:33;;;;;;;11.47;3.30;;;;;;;24.35;71.86;100150.44;5084859;28;20205;-76
2023/06/29 06:56:58;;;;;;;8.07;3.47;;;;;;;24.66;71.45;100150.97;5090772;28;20207;-75
2023/06/29 06:59:23;;;;;;;5.43;2.97;;;;;;;24.81;71.56;100150.84;5087894;28;20185;-75
2023/06/29 07:01:49;;;;;;;8.20;3.13;;;;;;;25.01;71.53;100144.13;5086987;28;20169;-75
2023/06/29 07:04:14;;;;;;;6.03;3.00;;;;;;;25.21;71.10;100142.69;5082450;28;20704;-75
2023/06/29 07:06:39;;;;;;;5.73;2.80;;;;;;;25.19;70.35;100141.09;5082038;28;20715;-76
2023/06/29 07:09:07;;;;;;;4.93;3.03;;;;;;;24.89;71.21;100150.31;5077925;28;20186;-75
2023/06/29 07:11:32;;;;;;;4.30;2.70;;;;;;;24.87;71.60;100137.19;5091065;28;20982;-76
2023/06/29 07:13:58;;;;;;;5.10;3.13;;;;;;;24.99;71.90;100143.38;5095706;28;20219;-75
2023/06/29 07:16:25;;;;;;;3.60;2.90;;;;;;;25.00;71.55;100139.78;5094405;28;20189;-75
2023/06/29 07:19:14;;;;;;;3.47;2.27;;;;;;;25.75;70.81;100134.38;5087439;28;20181;-76
2023/06/29 07:21:40;;;;;;;3.83;2.90;;;;;;;26.08;70.06;100138.94;5094061;28;20177;-75
2023/06/29 07:24:06;;;;;;;9.97;3.33;;;;;;;26.24;68.85;100140.44;5097292;28;20208;-75
2023/06/29 07:26:31;;;;;;;6.27;3.00;;;;;;;26.63;68.33;100141.75;5083821;28;20245;-76
2023/06/29 07:28:57;;;;;;;5.57;2.80;;;;;;;27.22;67.74;100138.91;5085116;28;20189;-78
2023/06/29 07:31:27;;;;;;;4.67;2.50;;;;;;;27.38;65.63;100131.38;5084312;28;20682;-76
2023/06/29 07:33:53;;;;;;;3.20;2.60;;;;;;;27.57;66.75;100126.38;5085038;28;20208;-76
2023/06/29 07:36:20;;;;;;;3.40;2.40;;;;;;;27.68;66.37;100129.81;5084869;28;20189;-75
2023/06/29 07:38:45;;;;;;;3.53;2.53;;;;;;;26.96;65.93;100125.09;5081676;28;20250;-77
2023/06/29 07:41:11;;;;;;;3.88;2.20;;;;;;;27.56;65.80;100122.88;5096093;28;20184;-77
2023/06/29 07:43:36;;;;;;;4.05;2.45;;;;;;;27.90;66.11;100132.50;5094944;28;20267;-77
2023/06/29 07:46:02;;;;;;;3.83;2.75;;;;;;;27.48;64.54;100130.63;5094482;28;20195;-77
2023/06/29 07:48:30;;;;;;;3.35;2.78;;;;;;;27.63;64.54;100123.22;5093214;28;20189;-76
2023/06/29 07:50:55;;;;;;;5.63;2.58;;;;;;;27.05;64.86;100125.19;5096101;28;20212;-75
2023/06/29 07:53:21;;;;;;;2.88;2.47;;;;;;;26.63;65.88;100120.53;5094408;27;20279;-75
2023/06/29 07:55:46;;;;;;;2.33;2.13;;;;;;;26.90;65.55;100118.47;5097568;28;20217;-77
2023/06/29 07:58:12;;;;;;;3.23;2.30;;;;;;;27.22;65.21;100120.31;5089836;28;20193;-77
2023/06/29 08:00:37;;;;;;;10.07;3.07;;;;;;;27.15;65.59;100122.66;5103080;28;20223;-76
2023/06/29 08:03:02;;;;;;;4.87;2.70;;;;;;;27.07;64.80;100125.91;5096748;28;20177;-76
2023/06/29 08:05:28;;;;;;;5.43;2.40;;;;;;;27.23;65.30;100120.19;5102808;28;20732;-75
2023/06/29 08:07:53;;;;;;;4.67;2.40;;;;;;;27.47;64.16;100113.88;5084885;28;20267;-75
2023/06/29 08:10:18;;;;;;;4.67;2.40;;;;;;;27.29;64.47;100123.31;5090788;28;20302;-77
2023/06/29 08:12:44;;;;;;;2.90;2.60;;;;;;;27.64;64.13;100120.41;5101341;28;20181;-76
2023/06/29 08:15:10;;;;;;;3.43;2.23;;;;;;;28.08;62.85;100122.09;5088913;28;20263;-76
2023/06/29 08:17:35;;;;;;;4.80;2.67;;;;;;;28.28;62.63;100121.25;5084812;28;20218;-76
2023/06/29 08:20:00;;;;;;;3.22;2.60;;;;;;;28.15;62.95;100123.28;5094981;28;20666;-76
2023/06/29 08:22:26;;;;;;;3.50;2.35;;;;;;;28.54;63.09;100125.28;5085231;28;20554;-76
2023/06/29 08:24:51;;;;;;;3.88;2.38;;;;;;;28.77;61.33;100123.28;5094794;28;20210;-76
2023/06/29 08:27:17;;;;;;;6.03;2.47;;;;;;;28.92;60.73;100120.22;5085735;28;20220;-76
2023/06/29 08:29:43;;;;;;;4.57;2.50;;;;;;;28.82;61.56;100114.88;5091576;28;20189;-76
2023/06/29 08:32:09;;;;;;;5.57;3.03;;;;;;;28.68;63.20;100114.25;5100195;28;20207;-76
2023/06/29 08:34:34;;;;;;;5.00;2.83;;;;;;;28.39;63.88;100119.47;5094889;28;20201;-77
2023/06/29 08:37:00;;;;;;;3.35;2.80;;;;;;;28.42;64.34;100124.53;5081040;28;20219;-75
2023/06/29 08:39:25;;;;;;;5.28;2.65;;;;;;;28.09;64.90;100115.78;5097503;28;20181;-76
2023/06/29 08:41:51;;;;;;;2.47;2.27;;;;;;;28.10;65.44;100118.38;5077033;28;20591;-75
2023/06/29 08:44:17;;;;;;;2.70;2.40;;;;;;;28.14;66.40;100119.78;5085208;28;20205;-75
2023/06/29 08:46:45;;;;;;;3.10;2.50;;;;;;;28.26;66.19;100120.53;5084915;28;20242;-75
2023/06/29 08:49:11;;;;;;;6.20;3.27;;;;;;;28.04;66.52;100115.38;5096102;28;20986;-77
2023/06/29 08:51:41;;;;;;;3.57;2.90;;;;;;;28.16;65.96;100117.00;5090212;28;20284;-76
2023/06/29 08:54:07;;;;;;;6.47;3.10;;;;;;;28.29;65.25;100114.09;5103929;28;20639;-75
2023/06/29 08:56:33;;;;;;;2.83;2.50;;;;;;;27.93;65.86;100111.78;5096504;28;20234;-75
2023/06/29 08:58:59;;;;;;;3.90;2.80;;;;;;;27.82;66.29;100110.06;5075124;28;20182;-75
2023/06/29 09:01:25;;;;;;;4.13;2.67;;;;;;;28.04;65.00;100115.38;5068207;28;20586;-75
2023/06/29 09:03:51;;;;;;;4.17;2.93;;;;;;;27.94;65.43;100107.31;5074579;28;20205;-77
2023/06/29 09:06:17;;;;;;;3.27;2.73;;;;;;;28.05;65.19;100101.91;5077426;28;20190;-76
2023/06/29 09:08:43;;;;;;;3.80;2.47;;;;;;;27.63;65.95;100105.44;5088172;28;20213;-77
2023/06/29 09:11:08;;;;;;;3.80;2.60;;;;;;;27.83;65.43;100102.91;5085571;28;20235;-76
2023/06/29 09:13:34;;;;;;;4.97;3.03;;;;;;;27.97;65.09;100104.41;5086997;28;20189;-76
2023/06/29 09:16:03;;;;;;;2.57;2.37;;;;;;;28.31;64.52;100101.50;5078561;28;20193;-76
2023/06/29 09:18:29;;;;;;;4.53;2.80;;;;;;;28.18;64.60;100096.44;5087191;28;20181;-76
2023/06/29 09:20:56;;;;;;;4.83;2.60;;;;;;;28.37;64.65;100102.78;5081924;28;20785;-76
2023/06/29 09:23:22;;;;;;;5.03;2.97;;;;;;;28.37;65.35;100100.13;5093408;28;20664;-77
2023/06/29 09:25:52;;;;;;;3.17;2.63;;;;;;;28.26;65.07;100103.75;5073206;28;20189;-76
2023/06/29 09:28:18;;;;;;;4.70;2.63;;;;;;;28.15;65.30;100102.00;5081985;28;20640;-75
2023/06/29 09:30:43;;;;;;;3.50;2.67;;;;;;;28.21;65.05;100101.47;5107736;28;20204;-75
2023/06/29 09:33:10;;;;;;;5.93;2.70;;;;;;;27.49;65.67;100103.94;5095024;28;20193;-76
2023/06/29 09:35:46;;;;;;;4.97;2.90;;;;;;;27.97;65.43;100094.59;5085390;28;20193;-76
2023/06/29 09:38:14;;;;;;;3.17;2.87;;;;;;;28.13;64.48;100096.81;5085507;28;20253;-76
2023/06/29 09:40:48;;;;;;;5.40;2.90;;;;;;;28.01;64.71;100097.84;5082576;28;20193;-75
2023/06/29 09:43:18;;;;;;;2.93;2.63;;;;;;;28.33;63.98;100098.72;5090888;27;20185;-75
2023/06/29 09:45:43;;;;;;;3.17;2.37;;;;;;;28.37;64.78;100098.31;5088938;28;20203;-75
2023/06/29 09:48:12;;;;;;;3.03;2.70;;;;;;;28.58;64.99;100102.75;5090860;28;20177;-75
2023/06/29 09:50:37;;;;;;;3.00;2.40;;;;;;;28.74;64.01;100100.41;5097784;28;20205;-77
2023/06/29 09:53:08;;;;;;;2.97;2.47;;;;;;;28.92;63.15;100101.59;5098823;28;20196;-75
2023/06/29 09:55:34;;;;;;;3.40;3.10;;;;;;;28.57;63.07;100099.22;5081712;28;20204;-77
2023/06/29 09:58:00;;;;;;;3.10;2.33;;;;;;;28.80;62.78;100090.22;5085482;28;20181;-76
2023/06/29 10:00:27;;;;;;;4.30;2.50;;;;;;;29.10;61.93;100096.41;5100316;28;20216;-76
2023/06/29 10:02:54;;;;;;;4.53;2.80;;;;;;;29.37;62.45;100084.25;5091504;28;20235;-76
2023/06/29 10:05:20;;;;;;;3.95;3.42;;;;;;;29.50;62.60;100088.31;5076961;28;20616;-76
2023/06/29 10:07:46;;;;;;;3.67;2.73;;;;;;;29.47;62.39;100082.44;5079973;28;20196;-76
2023/06/29 10:10:15;;;;;;;4.60;3.28;;;;;;;28.82;63.08;100082.94;5106178;28;20195;-78
2023/06/29 10:12:40;;;;;;;4.53;2.65;;;;;;;29.13;63.75;100086.31;5111447;28;20284;-76
2023/06/29 10:15:11;;;;;;;4.03;3.17;;;;;;;28.29;63.28;100088.34;5097981;28;20292;-77
2023/06/29 10:17:56;;;;;;;5.13;2.70;;;;;;;28.21;64.06;100084.66;5096791;27;20188;-76
2023/06/29 10:20:25;;;;;;;5.67;3.03;;;;;;;28.29;62.77;100088.34;5093054;28;20185;-76
2023/06/29 10:22:53;;;;;;;5.90;2.63;;;;;;;28.73;62.54;100081.94;5091993;28;20288;-76
2023/06/29 10:25:22;;;;;;;5.38;2.72;;;;;;;28.64;61.25;100080.06;5085649;28;20722;-77
2023/06/29 10:27:52;;;;;;;2.83;2.63;;;;;;;28.19;60.87;100071.50;5079369;28;20185;-77
2023/06/29 10:30:19;;;;;;;4.63;2.33;;;;;;;28.66;60.91;100078.09;5089027;28;20670;-76
2023/06/29 10:32:48;;;;;;;3.07;2.53;;;;;;;28.67;61.04;100069.97;5087783;28;20184;-75
2023/06/29 10:35:14;;;;;;;5.77;2.80;;;;;;;28.36;62.24;100079.84;5084750;28;20206;-78
2023/06/29 10:37:44;;;;;;;4.67;2.70;;;;;;;28.08;61.54;100072.41;5085008;28;20667;-77
2023/06/29 10:40:22;;;;;;;5.47;3.00;;;;;;;27.80;60.92;100073.91;5091340;28;20180;-77
2023/06/29 10:42:52;;;;;;;7.30;2.80;;;;;;;27.84;61.58;100072.69;5081755;28;20716;-76
2023/06/29 10:45:18;;;;;;;3.90;2.80;;;;;;;27.78;62.82;100071.41;5083216;28;20206;-75
2023/06/29 10:48:04;;;;;;;6.20;3.00;;;;;;;27.47;62.80;100073.13;5082538;28;20208;-76
2023/06/29 10:50:41;;;;;;;3.87;2.30;;;;;;;27.49;63.08;100069.41;5088266;28;20180;-77
2023/06/29 10:53:09;;;;;;;2.67;2.30;;;;;;;27.79;63.40;100064.25;5099147;28;20227;-78
2023/06/29 10:55:42;;;;;;;4.60;2.63;;;;;;;28.13;63.50;100074.69;5087095;28;20236;-76
2023/06/29 10:58:13;;;;;;;4.17;2.40;;;;;;;28.25;62.93;100073.63;5083051;28;20197;-77
2023/06/29 11:00:39;;;;;;;2.90;2.20;;;;;;;28.10;60.72;100066.97;5101088;28;20192;-77
2023/06/29 11:03:05;;;;;;;2.97;2.20;;;;;;;28.38;61.17;100062.75;5106997;28;20182;-77
2023/06/29 11:05:33;;;;;;;2.80;2.30;;;;;;;28.72;61.02;100064.22;5092230;28;20197;-76
2023/06/29 11:07:58;;;;;;;3.23;2.67;;;;;;;28.85;60.54;100062.19;5085650;28;20653;-78
2023/06/29 11:10:24;;;;;;;3.83;2.87;;;;;;;29.10;59.90;100064.44;5080782;28;20269;-79
2023/06/29 11:12:50;;;;;;;3.10;2.53;;;;;;;28.68;59.79;100058.34;5087685;28;20733;-75
2023/06/29 11:15:17;;;;;;;3.40;2.60;;;;;;;28.78;59.94;100060.19;5090286;28;20212;-78
2023/06/29 11:17:43;;;;;;;3.57;2.30;;;;;;;28.94;59.50;100063.16;5086805;28;20189;-76